Time;durP1;ratioP1;P1;durP2;ratioP2;P2;SDS_P1;SDS_P2;PMS_P1;PMS_P2;Temp;Humidity;BMP_temperature;BMP_pressure;BME280_temperature;BME280_humidity;BME280_pressure;Samples;Min_cycle;Max_cycle;Signal;HPM_P1;HPM_P2
2022/04/24 00:00:13;;;;;;;24.87;22.37;;;;;;;12.09;82.13;94690.72;5076545;28;20210;-53
2022/04/24 00:02:40;;;;;;;23.20;20.70;;;;;;;12.12;81.90;94692.16;5071153;28;20623;-52
2022/04/24 00:05:10;;;;;;;29.00;25.90;;;;;;;12.11;82.36;94695.84;5076194;28;20548;-54
2022/04/24 00:07:38;;;;;;;29.53;25.20;;;;;;;12.10;82.78;94700.31;5076082;28;20211;-53
2022/04/24 00:10:07;;;;;;;26.10;23.53;;;;;;;12.08;83.42;94704.19;5070935;28;20538;-53
2022/04/24 00:12:33;;;;;;;23.53;21.23;;;;;;;12.07;83.64;94710.50;5075998;28;20207;-52
2022/04/24 00:15:00;;;;;;;24.20;21.60;;;;;;;12.05;83.84;94709.84;5068008;28;20210;-53
2022/04/24 00:17:26;;;;;;;23.20;20.87;;;;;;;12.02;86.08;94705.78;5085436;28;20217;-53
2022/04/24 00:19:53;;;;;;;24.70;22.20;;;;;;;12.02;85.74;94710.25;5075238;28;20199;-53
2022/04/24 00:22:19;;;;;;;24.67;22.07;;;;;;;12.03;86.06;94719.84;5076963;28;20213;-53
2022/04/24 00:24:49;;;;;;;25.27;22.77;;;;;;;12.03;85.84;94731.28;5069293;28;20225;-54
2022/04/24 00:27:18;;;;;;;25.20;22.60;;;;;;;12.06;86.02;94735.34;5076424;28;20252;-53
2022/04/24 00:29:47;;;;;;;24.90;22.30;;;;;;;12.10;86.17;94734.75;5071102;28;20200;-53
2022/04/24 00:32:13;;;;;;;26.07;23.53;;;;;;;12.06;86.71;94743.28;5061935;28;20203;-52
2022/04/24 00:34:41;;;;;;;25.83;23.23;;;;;;;12.03;87.05;94754.28;5077639;28;20282;-53
2022/04/24 00:37:08;;;;;;;25.63;23.23;;;;;;;12.00;87.85;94789.94;5076367;28;20215;-53
2022/04/24 00:39:35;;;;;;;10.17;9.17;;;;;;;11.92;80.74;94796.22;5070445;28;20211;-52
2022/04/24 00:42:04;;;;;;;8.17;7.37;;;;;;;11.74;80.75;94806.50;5068081;28;20631;-53
2022/04/24 00:44:33;;;;;;;5.13;4.60;;;;;;;11.37;79.28;94805.00;5075911;28;20210;-53
2022/04/24 00:47:04;;;;;;;5.90;4.80;;;;;;;11.28;81.15;94834.44;5076066;28;20214;-52
2022/04/24 00:49:31;;;;;;;3.83;3.53;;;;;;;11.06;81.27;94846.03;5069391;28;20235;-52
2022/04/24 00:51:59;;;;;;;3.13;2.93;;;;;;;10.90;79.49;94852.41;5071632;28;20221;-53
2022/04/24 00:54:25;;;;;;;2.70;2.20;;;;;;;10.71;80.21;94851.19;5063694;28;20226;-54
2022/04/24 00:56:52;;;;;;;2.60;2.40;;;;;;;10.59;80.23;94843.97;5065240;28;20221;-52
2022/04/24 00:59:20;;;;;;;2.17;2.07;;;;;;;10.45;82.62;94849.06;5075885;28;20222;-52
2022/04/24 01:01:48;;;;;;;1.53;1.43;;;;;;;10.53;81.94;94861.38;5075068;28;20236;-51
2022/04/24 01:04:14;;;;;;;0.93;0.93;;;;;;;10.36;83.08;94873.16;5075837;28;20522;-52
2022/04/24 01:06:42;;;;;;;0.83;0.80;;;;;;;10.22;81.30;94880.09;5064925;28;20218;-51
2022/04/24 01:09:12;;;;;;;2.30;1.00;;;;;;;10.21;82.80;94889.03;5075223;28;20210;-51
2022/04/24 01:11:38;;;;;;;0.80;0.80;;;;;;;10.10;82.52;94892.09;5076116;28;20234;-52
2022/04/24 01:14:06;;;;;;;0.60;0.60;;;;;;;10.02;83.66;94908.06;5064668;28;20241;-53
2022/04/24 01:16:34;;;;;;;0.60;0.60;;;;;;;9.99;82.05;94911.84;5074983;28;20220;-52
2022/04/24 01:19:01;;;;;;;1.77;0.77;;;;;;;9.85;85.50;94920.56;5070729;28;20623;-52
2022/04/24 01:21:29;;;;;;;0.73;0.50;;;;;;;9.80;82.83;94916.84;5068576;28;20213;-53
2022/04/24 01:23:56;;;;;;;0.40;0.40;;;;;;;9.78;82.22;94921.47;5065983;28;20213;-52
2022/04/24 01:26:23;;;;;;;0.97;0.60;;;;;;;9.82;82.47;94915.66;5071791;28;20215;-52
2022/04/24 01:28:50;;;;;;;0.30;0.30;;;;;;;9.74;82.82;94902.53;5071030;28;20210;-52
2022/04/24 01:31:17;;;;;;;1.03;0.20;;;;;;;9.68;81.58;94898.00;5062404;28;20224;-53
2022/04/24 01:33:45;;;;;;;0.00;0.00;;;;;;;9.60;81.75;94884.06;5071430;28;20233;-53
2022/04/24 01:36:11;;;;;;;0.10;0.10;;;;;;;9.53;81.86;94894.50;5074347;28;20234;-53
2022/04/24 01:38:41;;;;;;;0.10;0.10;;;;;;;9.46;82.19;94912.03;5074606;28;20220;-53
2022/04/24 01:41:07;;;;;;;0.10;0.10;;;;;;;9.37;82.90;94915.75;5061285;28;20283;-53
2022/04/24 01:43:36;;;;;;;1.37;0.20;;;;;;;9.26;83.84;94926.72;5073909;28;20209;-54
2022/04/24 01:46:04;;;;;;;0.30;0.20;;;;;;;9.35;81.94;94938.88;5075209;28;20211;-51
2022/04/24 01:48:33;;;;;;;0.40;0.20;;;;;;;9.25;81.60;94931.19;5067895;28;20213;-52
2022/04/24 01:51:02;;;;;;;0.07;0.07;;;;;;;9.11;81.11;94944.28;5074358;28;20602;-53
2022/04/24 01:53:31;;;;;;;0.10;0.10;;;;;;;9.05;80.87;94945.00;5074550;28;20241;-52
2022/04/24 01:56:01;;;;;;;0.47;0.13;;;;;;;8.95;81.16;94953.97;5081182;28;20608;-51
2022/04/24 01:58:28;;;;;;;0.10;0.10;;;;;;;8.94;81.60;94941.78;5070438;28;20654;-52
2022/04/24 02:00:55;;;;;;;0.50;0.27;;;;;;;8.91;81.80;94946.56;5074341;28;20207;-51
2022/04/24 02:03:25;;;;;;;0.47;0.20;;;;;;;8.86;82.69;94933.91;5074583;28;20615;-52
2022/04/24 02:05:52;;;;;;;0.53;0.20;;;;;;;8.81;82.28;94953.91;5074685;28;20263;-52
2022/04/24 02:08:19;;;;;;;0.43;0.43;;;;;;;8.65;82.46;94951.31;5068469;28;20221;-52
2022/04/24 02:10:45;;;;;;;0.33;0.23;;;;;;;8.70;83.23;94951.66;5074173;28;20202;-52
2022/04/24 02:13:15;;;;;;;1.07;0.30;;;;;;;8.48;83.97;94950.59;5068508;28;20207;-51
2022/04/24 02:15:42;;;;;;;0.63;0.30;;;;;;;8.55;83.19;94964.72;5073278;28;20210;-52
2022/04/24 02:18:09;;;;;;;0.63;0.20;;;;;;;8.53;83.31;94956.19;5069289;28;20199;-52
2022/04/24 02:20:37;;;;;;;0.10;0.10;;;;;;;8.51;84.57;94966.03;5066101;28;20203;-52
2022/04/24 02:23:04;;;;;;;0.30;0.30;;;;;;;8.55;84.12;94970.00;5071347;28;20210;-53
2022/04/24 02:25:30;;;;;;;0.00;0.00;;;;;;;8.63;83.93;94964.69;5067779;28;20630;-52
2022/04/24 02:27:58;;;;;;;1.13;0.07;;;;;;;8.66;82.82;94966.97;5070988;28;20231;-53
2022/04/24 02:30:32;;;;;;;0.20;0.10;;;;;;;8.60;83.79;94959.78;5068503;28;20262;-52
2022/04/24 02:33:00;;;;;;;0.80;0.20;;;;;;;8.54;85.59;94970.19;5082936;28;20222;-53
2022/04/24 02:35:30;;;;;;;0.20;0.10;;;;;;;8.62;84.87;94970.94;5077068;28;20238;-53
2022/04/24 02:37:56;;;;;;;0.10;0.10;;;;;;;8.70;84.35;94978.81;5075556;28;20208;-53
2022/04/24 02:40:24;;;;;;;0.20;0.20;;;;;;;8.70;83.70;94965.66;5062448;28;20212;-53
2022/04/24 02:42:51;;;;;;;1.30;0.27;;;;;;;8.68;83.46;94967.63;5071972;28;20249;-53
2022/04/24 02:45:19;;;;;;;0.10;0.10;;;;;;;8.72;83.30;94966.28;5070364;28;20210;-53
2022/04/24 02:47:48;;;;;;;0.10;0.10;;;;;;;8.73;82.12;94960.03;5071838;28;20198;-53
2022/04/24 02:50:15;;;;;;;0.40;0.40;;;;;;;8.78;81.66;94951.59;5074189;28;20538;-53
2022/04/24 02:52:46;;;;;;;0.10;0.10;;;;;;;8.69;81.03;94942.91;5074116;28;20238;-52
2022/04/24 02:55:14;;;;;;;0.10;0.10;;;;;;;8.66;81.85;94938.00;5074547;28;20222;-52
2022/04/24 02:57:41;;;;;;;0.17;0.10;;;;;;;8.68;81.99;94929.94;5077538;28;20213;-54
2022/04/24 03:00:09;;;;;;;0.10;0.10;;;;;;;8.66;81.61;94922.19;5076222;28;20211;-53
2022/04/24 03:02:41;;;;;;;0.10;0.10;;;;;;;8.60;81.97;94920.25;5078850;28;20618;-52
2022/04/24 03:05:10;;;;;;;0.00;0.00;;;;;;;8.47;84.22;94912.06;5077890;28;20256;-51
2022/04/24 03:07:39;;;;;;;0.10;0.10;;;;;;;8.44;85.66;94922.94;5077311;28;20210;-53
2022/04/24 03:10:08;;;;;;;0.20;0.20;;;;;;;8.55;82.58;94922.56;5073747;28;20797;-53
2022/04/24 03:12:35;;;;;;;0.10;0.10;;;;;;;8.46;82.47;94921.81;5077381;28;20820;-52
2022/04/24 03:15:01;;;;;;;0.00;0.00;;;;;;;8.49;82.61;94915.38;5077061;28;20225;-53
2022/04/24 03:17:28;;;;;;;0.10;0.10;;;;;;;8.51;82.27;94913.38;5083035;28;20203;-51
2022/04/24 03:19:58;;;;;;;0.20;0.10;;;;;;;8.44;83.29;94915.03;5085199;28;20203;-52
2022/04/24 03:22:27;;;;;;;0.07;0.07;;;;;;;8.53;81.12;94905.31;5071305;28;20203;-51
2022/04/24 03:24:54;;;;;;;0.03;0.00;;;;;;;8.43;82.63;94910.78;5069037;28;20202;-53
2022/04/24 03:27:21;;;;;;;0.10;0.10;;;;;;;8.45;82.10;94900.91;5109792;28;20226;-52
2022/04/24 03:29:47;;;;;;;0.13;0.13;;;;;;;8.49;81.82;94899.56;5108303;28;20222;-52
2022/04/24 03:32:14;;;;;;;0.00;0.00;;;;;;;8.46;81.74;94895.47;5089906;28;20209;-52
2022/04/24 03:34:41;;;;;;;0.10;0.10;;;;;;;8.54;80.96;94891.94;5076821;28;20227;-52
2022/04/24 03:37:07;;;;;;;0.30;0.10;;;;;;;8.41;82.09;94883.78;5068162;28;20293;-53
2022/04/24 03:39:38;;;;;;;0.53;0.13;;;;;;;8.44;82.36;94886.06;5063576;28;20207;-52
2022/04/24 03:42:05;;;;;;;0.10;0.10;;;;;;;8.29;82.74;94887.81;5072090;28;20226;-53
2022/04/24 03:44:32;;;;;;;0.10;0.10;;;;;;;8.31;82.04;94891.09;5085702;28;20213;-53
2022/04/24 03:46:59;;;;;;;0.40;0.10;;;;;;;8.31;82.36;94893.72;5075528;28;20297;-52
2022/04/24 03:49:25;;;;;;;0.10;0.10;;;;;;;8.25;83.51;94897.03;5087886;28;20206;-52
2022/04/24 03:51:52;;;;;;;0.10;0.00;;;;;;;8.25;82.84;94902.28;5089679;28;20207;-53
2022/04/24 03:54:19;;;;;;;0.10;0.10;;;;;;;8.28;82.80;94923.00;5089127;28;20268;-52
2022/04/24 03:56:47;;;;;;;0.17;0.17;;;;;;;8.25;82.79;94923.34;5075571;28;20233;-52
2022/04/24 03:59:14;;;;;;;0.07;0.07;;;;;;;8.18;83.98;94919.75;5076021;28;20209;-51
2022/04/24 04:01:40;;;;;;;0.40;0.20;;;;;;;8.19;83.23;94929.28;5076105;28;20244;-52
2022/04/24 04:04:07;;;;;;;1.13;0.10;;;;;;;8.20;82.08;94930.91;5076242;28;20218;-52
2022/04/24 04:06:33;;;;;;;0.10;0.10;;;;;;;8.15;83.03;94943.78;5067183;28;20206;-52
2022/04/24 04:09:02;;;;;;;0.17;0.13;;;;;;;8.12;83.31;94944.09;5076241;28;20213;-53
2022/04/24 04:11:29;;;;;;;0.20;0.20;;;;;;;8.12;83.98;94937.03;5076705;28;20235;-53
2022/04/24 04:13:59;;;;;;;0.20;0.20;;;;;;;8.04;85.95;94939.72;5068564;28;20234;-52
2022/04/24 04:16:27;;;;;;;0.90;0.20;;;;;;;8.06;84.44;94942.16;5075790;28;20218;-52
2022/04/24 04:18:54;;;;;;;0.30;0.20;;;;;;;7.99;86.93;94939.38;5072856;28;20548;-53
2022/04/24 04:21:20;;;;;;;0.30;0.10;;;;;;;8.02;85.77;94942.50;5072987;28;20213;-52
2022/04/24 04:23:48;;;;;;;0.60;0.20;;;;;;;7.93;86.25;94945.31;5066939;28;20530;-53
2022/04/24 04:26:17;;;;;;;0.17;0.10;;;;;;;7.94;87.79;94937.25;5075664;28;20213;-53
2022/04/24 04:28:44;;;;;;;0.30;0.10;;;;;;;7.84;88.19;94954.22;5074732;28;20215;-52
2022/04/24 04:31:12;;;;;;;0.93;0.20;;;;;;;7.80;89.38;94952.91;5070359;28;20214;-52
2022/04/24 04:33:39;;;;;;;0.20;0.20;;;;;;;7.75;91.98;94961.31;5059836;28;20761;-52
2022/04/24 04:36:08;;;;;;;0.40;0.40;;;;;;;7.69;91.78;94958.50;5075517;28;20660;-52
2022/04/24 04:38:37;;;;;;;0.20;0.20;;;;;;;7.79;90.93;94960.00;5075891;28;20263;-51
2022/04/24 04:41:04;;;;;;;0.30;0.30;;;;;;;7.73;92.46;94958.00;5073628;28;20202;-53
2022/04/24 04:43:31;;;;;;;0.20;0.20;;;;;;;7.70;92.27;94966.25;5075698;28;20221;-52
2022/04/24 04:45:57;;;;;;;0.10;0.10;;;;;;;7.75;91.13;94969.22;5081998;28;20198;-54
2022/04/24 04:48:26;;;;;;;0.10;0.10;;;;;;;7.73;90.92;94971.16;5091037;28;20198;-53
2022/04/24 04:50:52;;;;;;;0.10;0.10;;;;;;;7.65;91.42;94968.53;5068013;28;20274;-52
2022/04/24 04:53:20;;;;;;;0.70;0.30;;;;;;;7.60;93.83;94973.50;5071233;28;20245;-52
2022/04/24 04:55:49;;;;;;;0.33;0.33;;;;;;;7.63;93.14;94973.16;5076405;28;20226;-53
2022/04/24 04:58:17;;;;;;;0.30;0.30;;;;;;;7.65;93.41;94973.78;5074178;28;20551;-52
2022/04/24 05:00:46;;;;;;;0.10;0.10;;;;;;;7.60;93.91;94970.88;5075424;28;20203;-54
2022/04/24 05:03:14;;;;;;;0.30;0.30;;;;;;;7.63;94.52;94981.03;5075649;28;20259;-52
2022/04/24 05:05:43;;;;;;;0.47;0.40;;;;;;;7.67;93.35;94982.38;5075386;28;20210;-53
2022/04/24 05:08:09;;;;;;;0.30;0.17;;;;;;;7.71;92.61;94975.78;5075641;28;20221;-52
2022/04/24 05:10:39;;;;;;;0.37;0.20;;;;;;;7.72;92.74;94979.25;5074805;28;20210;-53
2022/04/24 05:13:06;;;;;;;0.20;0.20;;;;;;;7.82;92.93;94991.25;5075339;28;20202;-53
2022/04/24 05:15:32;;;;;;;0.10;0.10;;;;;;;7.83;92.33;94987.59;5074336;28;20236;-52
2022/04/24 05:17:59;;;;;;;0.10;0.10;;;;;;;7.90;92.37;94983.31;5075512;28;20214;-53
2022/04/24 05:20:27;;;;;;;0.10;0.10;;;;;;;7.98;92.16;94985.94;5073926;28;20202;-54
2022/04/24 05:23:03;;;;;;;0.20;0.20;;;;;;;7.90;93.38;94983.31;5074457;28;20214;-52
2022/04/24 05:25:30;;;;;;;0.20;0.20;;;;;;;7.90;94.26;94985.16;5070815;28;20229;-52
2022/04/24 05:27:57;;;;;;;0.27;0.27;;;;;;;7.90;93.80;94993.84;5075737;28;20256;-53
2022/04/24 05:30:26;;;;;;;0.10;0.10;;;;;;;7.91;94.90;94990.22;5067568;28;20218;-52
2022/04/24 05:32:52;;;;;;;0.20;0.20;;;;;;;7.93;95.35;94985.63;5073734;28;20206;-52
2022/04/24 05:35:18;;;;;;;0.40;0.40;;;;;;;8.00;95.92;94988.41;5082233;28;20693;-53
2022/04/24 05:37:47;;;;;;;0.40;0.23;;;;;;;8.05;95.15;94987.88;5078656;28;20214;-52
2022/04/24 05:40:16;;;;;;;0.30;0.30;;;;;;;8.15;95.07;94986.72;5061855;28;20302;-53
2022/04/24 05:42:46;;;;;;;0.10;0.10;;;;;;;8.15;93.62;94993.81;5080098;28;20214;-53
2022/04/24 05:45:14;;;;;;;0.20;0.20;;;;;;;8.22;93.88;94992.94;5076591;28;20209;-53
2022/04/24 05:47:42;;;;;;;0.30;0.20;;;;;;;8.24;94.20;94995.41;5071638;28;20242;-54
2022/04/24 05:50:09;;;;;;;0.20;0.20;;;;;;;8.31;94.61;94996.41;5060986;28;20204;-53
2022/04/24 05:52:35;;;;;;;0.30;0.30;;;;;;;8.42;94.12;95001.31;5073216;28;20215;-53
2022/04/24 05:55:02;;;;;;;0.37;0.30;;;;;;;8.47;93.39;95002.44;5061321;28;20235;-52
2022/04/24 05:57:30;;;;;;;0.20;0.20;;;;;;;8.52;93.54;95003.75;5062699;28;20225;-52
2022/04/24 05:59:57;;;;;;;0.30;0.20;;;;;;;8.55;93.54;95009.50;5071024;28;20211;-52
2022/04/24 06:02:24;;;;;;;0.53;0.40;;;;;;;8.57;92.83;95007.53;5064007;28;20210;-53
2022/04/24 06:04:53;;;;;;;0.23;0.23;;;;;;;8.63;94.26;95014.75;5071362;28;20210;-53
2022/04/24 06:07:20;;;;;;;0.53;0.53;;;;;;;8.64;91.63;95021.66;5074656;28;20243;-53
2022/04/24 06:09:47;;;;;;;0.33;0.30;;;;;;;8.75;91.94;95018.63;5074173;28;20202;-52
2022/04/24 06:12:13;;;;;;;0.30;0.30;;;;;;;8.88;92.21;95023.38;5075087;28;20199;-53
2022/04/24 06:14:41;;;;;;;0.60;0.60;;;;;;;9.03;91.92;95024.28;5075067;28;20238;-52
2022/04/24 06:17:07;;;;;;;0.57;0.57;;;;;;;9.17;90.74;95023.56;5070583;28;20203;-52
2022/04/24 06:19:34;;;;;;;0.63;0.40;;;;;;;9.19;90.00;95023.38;5073932;28;20607;-53
2022/04/24 06:22:00;;;;;;;0.30;0.30;;;;;;;9.28;89.77;95022.34;5071486;28;20234;-53
2022/04/24 06:24:27;;;;;;;0.50;0.23;;;;;;;9.36;87.31;95020.44;5065319;28;20235;-52
2022/04/24 06:26:54;;;;;;;0.10;0.10;;;;;;;9.45;86.48;95021.22;5074770;28;20214;-52
2022/04/24 06:29:22;;;;;;;0.30;0.30;;;;;;;9.54;86.20;95033.34;5067604;28;20214;-52
2022/04/24 06:31:51;;;;;;;0.20;0.20;;;;;;;9.58;85.73;95032.00;5086360;28;20673;-52
2022/04/24 06:34:18;;;;;;;0.20;0.20;;;;;;;9.58;86.89;95039.09;5073805;28;20220;-52
2022/04/24 06:36:44;;;;;;;0.20;0.20;;;;;;;9.59;86.59;95030.19;5068628;28;20243;-52
2022/04/24 06:39:11;;;;;;;0.20;0.20;;;;;;;9.73;86.72;95045.25;5071460;28;20202;-52
2022/04/24 06:41:37;;;;;;;0.20;0.17;;;;;;;9.85;87.67;95039.38;5074110;28;20226;-52
2022/04/24 06:44:04;;;;;;;0.10;0.10;;;;;;;9.92;83.64;95042.94;5089689;28;20206;-53
2022/04/24 06:46:30;;;;;;;0.57;0.50;;;;;;;10.08;83.53;95042.00;5072772;28;20214;-52
2022/04/24 06:49:01;;;;;;;0.23;0.20;;;;;;;10.16;82.36;95041.97;5073973;28;20223;-53
2022/04/24 06:51:27;;;;;;;0.10;0.10;;;;;;;10.23;79.20;95040.25;5078148;28;20301;-53
2022/04/24 06:53:55;;;;;;;0.23;0.23;;;;;;;10.28;78.52;95043.16;5074196;28;20210;-52
2022/04/24 06:56:22;;;;;;;0.10;0.10;;;;;;;10.18;78.53;95041.75;5077099;28;20275;-53
2022/04/24 06:58:48;;;;;;;0.43;0.30;;;;;;;10.28;78.75;95047.59;5071513;28;20206;-53
2022/04/24 07:01:16;;;;;;;0.10;0.10;;;;;;;10.28;80.33;95052.88;5076900;28;20206;-54
2022/04/24 07:03:43;;;;;;;0.10;0.10;;;;;;;10.38;78.45;95054.28;5094406;28;20215;-52
2022/04/24 07:06:12;;;;;;;0.17;0.13;;;;;;;10.39;77.13;95055.09;5076507;28;20205;-53
2022/04/24 07:08:39;;;;;;;0.10;0.10;;;;;;;10.49;75.69;95060.94;5082040;28;20547;-53
2022/04/24 07:11:05;;;;;;;0.57;0.20;;;;;;;10.54;74.93;95055.94;5078276;28;20212;-52
2022/04/24 07:13:32;;;;;;;0.00;0.00;;;;;;;10.69;72.97;95066.53;5078200;28;20210;-52
2022/04/24 07:15:58;;;;;;;0.20;0.20;;;;;;;10.66;73.05;95073.00;5077811;28;20226;-51
2022/04/24 07:18:25;;;;;;;0.23;0.23;;;;;;;10.63;73.59;95072.53;5078016;28;20202;-53
2022/04/24 07:20:54;;;;;;;0.30;0.30;;;;;;;10.75;72.55;95066.63;5073074;28;20226;-53
2022/04/24 07:23:22;;;;;;;0.27;0.27;;;;;;;10.78;73.71;95071.53;5071398;28;20702;-53
2022/04/24 07:25:49;;;;;;;0.40;0.40;;;;;;;10.86;74.13;95079.38;5077941;28;20512;-53
2022/04/24 07:28:18;;;;;;;0.30;0.20;;;;;;;11.01;72.02;95076.72;5089338;28;20206;-53
2022/04/24 07:30:46;;;;;;;0.63;0.50;;;;;;;10.96;71.52;95074.63;5105402;28;20197;-53
2022/04/24 07:33:14;;;;;;;0.30;0.30;;;;;;;10.97;71.74;95078.91;5091072;28;20213;-53
2022/04/24 07:35:42;;;;;;;0.50;0.23;;;;;;;11.02;72.34;95074.91;5077978;28;20242;-52
2022/04/24 07:38:17;;;;;;;0.40;0.20;;;;;;;11.08;71.74;95082.09;5088518;28;20202;-53
2022/04/24 07:40:45;;;;;;;0.20;0.20;;;;;;;11.11;72.10;95084.38;5114283;28;20236;-53
2022/04/24 07:43:13;;;;;;;0.50;0.43;;;;;;;11.15;71.25;95085.66;5094474;28;20242;-53
2022/04/24 07:45:41;;;;;;;0.40;0.40;;;;;;;11.23;71.12;95085.56;5071903;28;20202;-53
2022/04/24 07:48:09;;;;;;;0.60;0.47;;;;;;;11.23;72.28;95085.56;5076868;28;20702;-53
2022/04/24 07:50:39;;;;;;;0.37;0.37;;;;;;;11.42;72.64;95091.06;5077526;28;20620;-53
2022/04/24 07:53:06;;;;;;;0.30;0.20;;;;;;;11.45;72.65;95096.00;5078511;28;20214;-53
2022/04/24 07:55:36;;;;;;;1.27;1.20;;;;;;;11.34;71.05;95083.22;5086852;28;20236;-53
2022/04/24 07:58:06;;;;;;;0.70;0.70;;;;;;;11.62;72.15;95096.59;5077470;28;20232;-53
2022/04/24 08:00:33;;;;;;;0.40;0.40;;;;;;;11.71;71.40;95095.50;5081133;28;20206;-53
2022/04/24 08:03:03;;;;;;;0.20;0.20;;;;;;;11.67;68.88;95090.72;5076296;28;20210;-53
2022/04/24 08:05:32;;;;;;;0.30;0.30;;;;;;;11.55;69.21;95105.47;5075783;28;20198;-52
2022/04/24 08:08:00;;;;;;;0.30;0.30;;;;;;;11.77;69.46;95109.81;5075747;28;20214;-53
2022/04/24 08:10:30;;;;;;;0.70;0.70;;;;;;;11.80;67.18;95110.25;5076411;28;20548;-53
2022/04/24 08:12:57;;;;;;;1.13;0.77;;;;;;;11.81;68.91;95111.09;5076454;28;20214;-53
2022/04/24 08:15:26;;;;;;;0.20;0.20;;;;;;;11.97;68.15;95111.66;5076063;28;20553;-53
2022/04/24 08:17:53;;;;;;;0.77;0.40;;;;;;;12.04;66.82;95100.31;5075649;28;20222;-53
2022/04/24 08:20:19;;;;;;;0.30;0.30;;;;;;;12.05;67.70;95107.22;5070221;28;20218;-53
2022/04/24 08:22:52;;;;;;;0.40;0.40;;;;;;;12.05;68.28;95108.06;5073810;28;20209;-53
2022/04/24 08:25:21;;;;;;;0.50;0.50;;;;;;;12.12;68.80;95113.41;5069073;28;20216;-52
2022/04/24 08:27:48;;;;;;;0.40;0.40;;;;;;;12.02;67.92;95107.63;5062787;28;20206;-53
2022/04/24 08:30:16;;;;;;;1.13;0.30;;;;;;;11.98;67.02;95110.66;5066472;28;20207;-52
2022/04/24 08:32:44;;;;;;;0.63;0.37;;;;;;;12.03;67.54;95112.75;5075722;28;20214;-51
2022/04/24 08:35:13;;;;;;;0.37;0.30;;;;;;;11.93;67.59;95117.53;5075860;28;20245;-53
2022/04/24 08:37:41;;;;;;;0.50;0.50;;;;;;;12.01;67.91;95114.75;5072508;28;20209;-54
2022/04/24 08:40:09;;;;;;;0.30;0.30;;;;;;;12.19;68.34;95114.31;5066126;28;20260;-53
2022/04/24 08:42:36;;;;;;;0.47;0.20;;;;;;;12.25;65.66;95116.22;5072293;28;20639;-53
2022/04/24 08:45:07;;;;;;;0.33;0.33;;;;;;;12.23;67.37;95111.09;5072454;28;20214;-53
2022/04/24 08:47:33;;;;;;;0.20;0.20;;;;;;;12.30;65.12;95113.78;5066150;28;20529;-51
2022/04/24 08:50:01;;;;;;;0.63;0.43;;;;;;;12.37;66.03;95118.16;5074485;28;20233;-52
2022/04/24 08:52:30;;;;;;;0.30;0.30;;;;;;;12.41;64.54;95119.41;5068346;28;20221;-53
2022/04/24 08:54:58;;;;;;;0.23;0.23;;;;;;;12.44;64.93;95112.88;5071083;28;20207;-52
2022/04/24 08:57:26;;;;;;;0.20;0.20;;;;;;;12.41;66.09;95115.94;5071825;28;20230;-53
2022/04/24 08:59:55;;;;;;;0.80;0.30;;;;;;;12.45;65.65;95117.19;5072038;28;20721;-52
2022/04/24 09:02:21;;;;;;;0.20;0.20;;;;;;;12.55;65.15;95119.50;5073850;28;20217;-52
2022/04/24 09:04:48;;;;;;;0.37;0.37;;;;;;;12.46;66.52;95117.00;5074648;28;20372;-53
2022/04/24 09:07:18;;;;;;;0.30;0.30;;;;;;;12.45;65.53;95125.16;5075241;28;20284;-53
2022/04/24 09:09:45;;;;;;;0.10;0.10;;;;;;;12.19;63.85;95125.72;5066468;28;20240;-53
2022/04/24 09:12:15;;;;;;;0.40;0.37;;;;;;;12.33;64.82;95129.31;5075718;28;20198;-52
2022/04/24 09:14:42;;;;;;;0.27;0.27;;;;;;;12.35;64.43;95138.72;5063261;28;20233;-53
2022/04/24 09:17:16;;;;;;;0.20;0.20;;;;;;;12.34;63.83;95142.38;5078398;28;20227;-52
2022/04/24 09:19:43;;;;;;;0.30;0.30;;;;;;;12.44;64.04;95139.41;5073545;28;20203;-52
2022/04/24 09:22:10;;;;;;;0.40;0.40;;;;;;;12.52;62.40;95139.28;5073408;28;20217;-52
2022/04/24 09:24:46;;;;;;;0.20;0.20;;;;;;;12.45;62.70;95141.06;5067546;28;20211;-52
2022/04/24 09:27:22;;;;;;;0.83;0.40;;;;;;;12.48;63.73;95145.97;5072158;28;20194;-52
2022/04/24 09:29:55;;;;;;;0.40;0.33;;;;;;;12.36;63.22;95152.81;5070028;28;20222;-52
2022/04/24 09:32:22;;;;;;;0.40;0.40;;;;;;;12.56;62.86;95152.97;5068320;28;20257;-53
2022/04/24 09:34:49;;;;;;;0.20;0.20;;;;;;;12.44;62.17;95150.00;5074893;28;20663;-52
2022/04/24 09:37:16;;;;;;;0.30;0.30;;;;;;;12.45;63.56;95162.25;5067042;28;20258;-53
2022/04/24 09:39:42;;;;;;;0.20;0.20;;;;;;;12.31;63.34;95171.09;5068787;28;20217;-52
2022/04/24 09:42:11;;;;;;;0.27;0.27;;;;;;;12.31;63.90;95166.63;5068005;28;20206;-53
2022/04/24 09:44:40;;;;;;;0.40;0.40;;;;;;;12.33;62.32;95171.72;5066000;28;20207;-53
2022/04/24 09:47:08;;;;;;;0.50;0.20;;;;;;;12.32;64.33;95167.44;5074824;28;20206;-53
2022/04/24 09:49:36;;;;;;;0.50;0.50;;;;;;;12.36;63.42;95179.31;5075079;28;20210;-53
2022/04/24 09:52:13;;;;;;;0.33;0.33;;;;;;;12.33;63.29;95177.03;5061979;28;20210;-53
2022/04/24 09:54:41;;;;;;;0.30;0.30;;;;;;;12.35;65.13;95177.66;5076949;28;20209;-53
2022/04/24 09:57:12;;;;;;;0.20;0.20;;;;;;;12.34;63.66;95181.31;5089196;28;20207;-53
2022/04/24 09:59:41;;;;;;;0.30;0.30;;;;;;;12.42;64.84;95183.84;5075692;28;20209;-53
2022/04/24 10:02:09;;;;;;;0.33;0.33;;;;;;;12.48;64.87;95180.44;5078482;28;20221;-52
2022/04/24 10:04:38;;;;;;;0.30;0.30;;;;;;;12.53;63.15;95177.22;5078557;28;20280;-53
2022/04/24 10:07:06;;;;;;;0.50;0.50;;;;;;;12.59;64.61;95185.22;5079889;28;20206;-53
2022/04/24 10:09:34;;;;;;;0.30;0.30;;;;;;;12.47;64.47;95186.75;5079175;28;20233;-54
2022/04/24 10:12:04;;;;;;;0.30;0.30;;;;;;;12.61;63.50;95177.88;5078872;28;20198;-58
2022/04/24 10:14:32;;;;;;;0.27;0.27;;;;;;;12.63;64.52;95186.50;5075085;28;20217;-52
2022/04/24 10:17:07;;;;;;;3.67;0.60;;;;;;;12.75;62.78;95186.81;5075035;28;20593;-52
2022/04/24 10:19:49;;;;;;;0.30;0.30;;;;;;;12.64;62.07;95188.16;5075087;28;20623;-52
2022/04/24 10:22:23;;;;;;;1.00;1.00;;;;;;;12.72;63.43;95195.13;5068468;28;20190;-52
2022/04/24 10:24:59;;;;;;;1.80;0.43;;;;;;;12.75;64.30;95192.91;5064791;28;20205;-51
2022/04/24 10:27:36;;;;;;;0.43;0.30;;;;;;;12.87;61.53;95193.22;5070438;28;20205;-51
2022/04/24 10:30:06;;;;;;;0.30;0.30;;;;;;;12.94;62.18;95196.72;5057911;28;20199;-52
2022/04/24 10:32:32;;;;;;;0.60;0.40;;;;;;;12.95;63.41;95198.38;5068912;28;20233;-51
2022/04/24 10:35:00;;;;;;;0.20;0.20;;;;;;;13.02;63.22;95198.44;5074131;28;20299;-52
2022/04/24 10:37:29;;;;;;;0.80;0.30;;;;;;;13.05;61.25;95200.69;5070621;28;20599;-52
2022/04/24 10:39:57;;;;;;;0.23;0.23;;;;;;;13.01;62.24;95204.75;5065937;28;20305;-53
2022/04/24 10:42:31;;;;;;;0.63;0.20;;;;;;;12.92;63.02;95196.94;5068929;28;20202;-52
2022/04/24 10:45:08;;;;;;;0.50;0.50;;;;;;;12.95;64.71;95201.88;5070721;28;20202;-52
2022/04/24 10:47:46;;;;;;;0.33;0.30;;;;;;;12.90;63.80;95203.44;5074627;28;20230;-51
2022/04/24 10:50:15;;;;;;;1.70;0.40;;;;;;;12.92;63.91;95196.13;5074772;28;20689;-51
2022/04/24 10:52:43;;;;;;;0.70;0.70;;;;;;;13.10;63.23;95203.63;5074397;28;20207;-52
2022/04/24 10:55:13;;;;;;;0.47;0.47;;;;;;;13.23;62.48;95203.72;5072548;28;20241;-52
2022/04/24 10:57:43;;;;;;;0.13;0.13;;;;;;;13.08;61.83;95203.78;5058236;28;20227;-51
2022/04/24 11:00:22;;;;;;;0.20;0.20;;;;;;;13.19;62.65;95202.47;5068879;28;20219;-53
2022/04/24 11:02:52;;;;;;;0.20;0.20;;;;;;;13.31;61.19;95206.22;5067074;28;20191;-52
2022/04/24 11:05:21;;;;;;;0.20;0.20;;;;;;;13.28;60.40;95209.28;5069834;28;20210;-52
2022/04/24 11:07:48;;;;;;;0.20;0.20;;;;;;;13.33;61.60;95202.34;5073749;28;20202;-55
2022/04/24 11:10:20;;;;;;;0.23;0.23;;;;;;;13.46;62.33;95212.25;5074393;28;20203;-55
2022/04/24 11:12:48;;;;;;;1.27;1.17;;;;;;;13.37;61.93;95208.09;5072671;28;20755;-56
2022/04/24 11:15:19;;;;;;;0.30;0.30;;;;;;;13.35;62.76;95199.50;5078327;28;20210;-57
2022/04/24 11:17:45;;;;;;;1.23;0.60;;;;;;;13.40;63.10;95207.69;5073861;28;20650;-57
2022/04/24 11:20:13;;;;;;;1.40;1.30;;;;;;;13.47;62.66;95211.22;5080989;28;20217;-56
2022/04/24 11:22:50;;;;;;;0.73;0.47;;;;;;;13.38;61.56;95202.59;5074968;28;20259;-57
2022/04/24 11:25:17;;;;;;;0.30;0.30;;;;;;;13.34;62.74;95200.53;5060862;28;20552;-55
2022/04/24 11:27:44;;;;;;;0.40;0.40;;;;;;;13.04;62.86;95191.91;5076192;28;20210;-56
2022/04/24 11:30:16;;;;;;;0.20;0.20;;;;;;;13.23;64.15;95209.84;5069487;28;20226;-55
2022/04/24 11:32:57;;;;;;;0.30;0.30;;;;;;;13.34;64.34;95211.13;5078358;28;20214;-58
2022/04/24 11:35:24;;;;;;;0.40;0.40;;;;;;;13.30;63.17;95207.22;5092544;28;20226;-56
2022/04/24 11:37:51;;;;;;;0.63;0.33;;;;;;;13.18;65.45;95216.75;5086873;28;20226;-54
2022/04/24 11:40:18;;;;;;;0.50;0.50;;;;;;;13.13;65.89;95213.84;5072020;28;20203;-56